createdAt,value
2018-06-22T00:00:08.113Z,0.90
2018-06-22T00:02:40.171Z,1.20
2018-06-22T00:05:12.204Z,1.00
2018-06-22T00:07:44.307Z,0.97
2018-06-22T00:10:16.359Z,1.00
2018-06-22T00:12:48.404Z,0.80
2018-06-22T00:15:20.497Z,1.27
2018-06-22T00:17:52.571Z,1.37
2018-06-22T00:20:24.630Z,0.80
2018-06-22T00:22:56.716Z,0.70
2018-06-22T00:25:28.743Z,1.30
2018-06-22T00:28:00.800Z,1.20
2018-06-22T00:30:32.885Z,0.90
2018-06-22T00:33:04.981Z,0.90
2018-06-22T00:35:37.080Z,0.98
2018-06-22T00:38:09.174Z,1.27
2018-06-22T00:40:41.251Z,1.32
2018-06-22T00:43:13.394Z,0.80
2018-06-22T00:45:45.458Z,1.05
2018-06-22T00:48:17.551Z,0.90
2018-06-22T00:50:49.689Z,0.85
2018-06-22T00:53:33.282Z,1.00
2018-06-22T00:56:05.370Z,1.12
2018-06-22T00:58:37.400Z,1.40
2018-06-22T01:01:09.483Z,1.10
2018-06-22T01:03:41.580Z,0.90
2018-06-22T01:06:13.718Z,0.95
2018-06-22T01:08:45.796Z,1.30
2018-06-22T01:11:17.870Z,1.00
2018-06-22T01:13:49.939Z,0.90
2018-06-22T01:16:22.108Z,0.98
2018-06-22T01:18:54.528Z,0.70
2018-06-22T01:21:26.657Z,0.90
2018-06-22T01:23:58.724Z,1.40
2018-06-22T01:26:31.558Z,1.20
2018-06-22T01:29:09.288Z,0.93
2018-06-22T01:31:41.373Z,0.93
2018-06-22T01:34:13.476Z,1.07
2018-06-22T01:36:45.602Z,0.70
2018-06-22T01:39:17.684Z,0.78
2018-06-22T01:41:49.791Z,0.98
2018-06-22T01:44:22.104Z,0.90
2018-06-22T01:46:54.151Z,0.80
2018-06-22T01:49:26.211Z,0.82
2018-06-22T01:51:58.284Z,0.90
2018-06-22T01:54:30.373Z,1.12
2018-06-22T01:57:02.517Z,0.80
2018-06-22T01:59:34.588Z,1.20
2018-06-22T02:02:06.651Z,0.90
2018-06-22T02:04:38.723Z,0.80
2018-06-22T02:07:10.817Z,0.90
2018-06-22T02:09:42.914Z,0.85
2018-06-22T02:12:15.007Z,1.00
2018-06-22T02:14:47.334Z,0.80
2018-06-22T02:17:19.437Z,1.32
2018-06-22T02:19:51.472Z,0.90
2018-06-22T02:22:23.542Z,1.02
2018-06-22T02:24:55.646Z,0.90
2018-06-22T02:27:27.737Z,0.80
2018-06-22T02:29:59.895Z,1.32
2018-06-22T02:32:31.979Z,1.87
2018-06-22T02:35:04.085Z,1.05
2018-06-22T02:37:36.250Z,0.90
2018-06-22T02:40:08.427Z,0.90
2018-06-22T02:42:40.539Z,0.90
2018-06-22T02:45:12.619Z,0.80
2018-06-22T02:47:44.715Z,0.70
2018-06-22T02:50:16.740Z,1.30
2018-06-22T02:52:48.851Z,1.50
2018-06-22T02:55:20.939Z,0.90
2018-06-22T02:57:53.019Z,1.10
2018-06-22T03:00:25.101Z,0.98
2018-06-22T03:02:57.181Z,1.20
2018-06-22T03:05:29.243Z,0.80
2018-06-22T03:08:01.368Z,0.95
2018-06-22T03:10:33.448Z,0.95
2018-06-22T03:13:05.534Z,1.00
2018-06-22T03:15:37.621Z,1.17
2018-06-22T03:18:09.703Z,0.90
2018-06-22T03:20:41.825Z,1.20
2018-06-22T03:23:13.905Z,1.10
2018-06-22T03:25:45.965Z,0.90
2018-06-22T03:28:18.035Z,1.30
2018-06-22T03:30:50.128Z,1.47
2018-06-22T03:33:22.215Z,1.15
2018-06-22T03:35:54.426Z,1.00
2018-06-22T03:38:26.535Z,1.20
2018-06-22T03:40:58.609Z,1.00
2018-06-22T03:43:30.735Z,1.12
2018-06-22T03:46:02.828Z,1.12
2018-06-22T03:48:34.911Z,1.10
2018-06-22T03:51:06.963Z,1.20
2018-06-22T03:53:39.015Z,1.27
2018-06-22T03:56:11.077Z,1.45
2018-06-22T03:58:43.232Z,1.05
2018-06-22T04:01:15.275Z,1.20
2018-06-22T04:03:47.367Z,1.30
2018-06-22T04:06:19.408Z,0.93
2018-06-22T04:08:51.470Z,0.95
2018-06-22T04:11:23.560Z,0.93
2018-06-22T04:13:55.693Z,0.90
2018-06-22T04:16:27.763Z,1.20
2018-06-22T04:18:59.856Z,1.40
2018-06-22T04:21:31.906Z,1.20
2018-06-22T04:24:03.983Z,1.22
2018-06-22T04:26:36.044Z,1.27
2018-06-22T04:29:08.143Z,1.07
2018-06-22T04:31:40.207Z,1.30
2018-06-22T04:34:12.295Z,1.00
2018-06-22T04:36:44.463Z,1.10
2018-06-22T04:39:16.581Z,1.20
2018-06-22T04:41:48.631Z,1.23
2018-06-22T04:44:20.704Z,1.37
2018-06-22T04:46:52.847Z,2.00
2018-06-22T04:49:24.954Z,1.20
2018-06-22T04:51:57.028Z,1.17
2018-06-22T04:54:29.071Z,1.47
2018-06-22T04:57:01.143Z,1.30
2018-06-22T04:59:33.198Z,1.60
2018-06-22T05:02:05.297Z,1.37
2018-06-22T05:04:37.398Z,1.30
2018-06-22T05:07:09.505Z,1.20
2018-06-22T05:09:41.565Z,1.40
2018-06-22T05:12:13.657Z,1.33
2018-06-22T05:14:45.758Z,1.50
2018-06-22T05:17:17.807Z,1.37
2018-06-22T05:19:50.294Z,1.20
2018-06-22T05:22:22.391Z,1.17
2018-06-22T05:24:54.611Z,1.30
2018-06-22T05:27:26.675Z,1.30
2018-06-22T05:29:59.173Z,1.20
2018-06-22T05:32:31.271Z,1.30
2018-06-22T05:35:03.541Z,1.27
2018-06-22T05:37:35.727Z,1.30
2018-06-22T05:40:07.908Z,1.47
2018-06-22T05:42:40.075Z,1.27
2018-06-22T05:45:12.150Z,1.10
2018-06-22T05:47:44.391Z,1.40
2018-06-22T05:50:16.496Z,1.00
2018-06-22T05:52:48.556Z,1.00
2018-06-22T05:55:20.629Z,1.37
2018-06-22T05:57:52.696Z,1.10
2018-06-22T06:00:24.785Z,1.30
2018-06-22T06:02:56.968Z,1.20
2018-06-22T06:05:29.043Z,1.20
2018-06-22T06:08:01.077Z,1.40
2018-06-22T06:10:33.155Z,1.93
2018-06-22T06:13:05.314Z,1.27
2018-06-22T06:15:37.396Z,1.40
2018-06-22T06:18:09.479Z,1.10
2018-06-22T06:20:41.552Z,1.10
2018-06-22T06:23:13.646Z,1.10
2018-06-22T06:25:45.773Z,1.27
2018-06-22T06:28:17.866Z,1.43
2018-06-22T06:30:49.915Z,1.40
2018-06-22T06:33:21.951Z,2.53
2018-06-22T06:35:54.070Z,1.40
2018-06-22T06:38:26.090Z,1.70
2018-06-22T06:40:58.192Z,1.47
2018-06-22T06:43:30.240Z,1.60
2018-06-22T06:46:02.317Z,1.50
2018-06-22T06:48:34.390Z,1.40
2018-06-22T06:51:06.612Z,1.73
2018-06-22T06:53:38.669Z,1.60
2018-06-22T06:56:10.781Z,1.70
2018-06-22T06:58:42.874Z,1.50
2018-06-22T07:01:14.958Z,1.23
2018-06-22T07:03:47.122Z,1.50
2018-06-22T07:06:19.179Z,1.40
2018-06-22T07:08:51.277Z,1.50
2018-06-22T07:11:23.387Z,1.60
2018-06-22T07:13:55.574Z,1.60
2018-06-22T07:16:27.751Z,1.70
2018-06-22T07:18:59.947Z,1.83
2018-06-22T07:21:32.044Z,1.83
2018-06-22T07:24:04.179Z,1.67
2018-06-22T07:26:36.285Z,1.70
2018-06-22T07:29:08.397Z,1.40
2018-06-22T07:31:40.484Z,1.70
2018-06-22T07:34:12.563Z,1.60
2018-06-22T07:36:44.678Z,1.70
2018-06-22T07:39:16.749Z,1.60
2018-06-22T07:41:48.866Z,1.90
2018-06-22T07:44:20.984Z,2.57
2018-06-22T07:46:53.083Z,1.70
2018-06-22T07:49:25.215Z,1.47
2018-06-22T07:51:57.309Z,1.90
2018-06-22T07:54:29.897Z,2.10
2018-06-22T07:57:02.091Z,2.33
2018-06-22T07:59:34.171Z,1.73
2018-06-22T08:02:06.283Z,1.90
2018-06-22T08:04:38.411Z,1.50
2018-06-22T08:07:10.699Z,2.07
2018-06-22T08:09:43.610Z,1.87
2018-06-22T08:12:15.735Z,2.47
2018-06-22T08:14:47.848Z,1.53
2018-06-22T08:17:19.940Z,1.90
2018-06-22T08:19:51.986Z,1.67
2018-06-22T08:22:24.077Z,1.70
2018-06-22T08:24:56.181Z,1.63
2018-06-22T08:27:28.398Z,1.30
2018-06-22T08:30:00.492Z,1.30
2018-06-22T08:32:32.573Z,1.00
2018-06-22T08:35:04.669Z,1.37
2018-06-22T08:37:36.726Z,1.33
2018-06-22T08:40:08.798Z,1.60
2018-06-22T08:42:40.874Z,1.57
2018-06-22T08:45:13.033Z,0.90
2018-06-22T08:47:47.717Z,1.50
2018-06-22T08:50:21.423Z,1.60
2018-06-22T08:52:55.412Z,1.10
2018-06-22T08:55:27.509Z,1.23
2018-06-22T08:57:59.598Z,1.20
2018-06-22T09:00:31.665Z,1.40
2018-06-22T09:03:03.904Z,1.60
2018-06-22T09:05:35.998Z,1.40
2018-06-22T09:08:08.187Z,1.00
2018-06-22T09:10:40.249Z,2.10
2018-06-22T09:13:12.400Z,1.27
2018-06-22T09:15:44.448Z,1.20
2018-06-22T09:18:16.520Z,1.60
2018-06-22T09:20:48.607Z,1.30
2018-06-22T09:23:20.654Z,1.37
2018-06-22T09:25:52.675Z,1.37
2018-06-22T09:28:24.941Z,1.60
2018-06-22T09:30:57.067Z,1.43
2018-06-22T09:33:29.143Z,1.40
2018-06-22T09:36:01.196Z,1.40
2018-06-22T09:38:33.246Z,1.40
2018-06-22T09:41:05.471Z,1.50
2018-06-22T09:43:37.554Z,1.30
2018-06-22T09:46:09.624Z,1.30
2018-06-22T09:48:41.691Z,1.40
2018-06-22T09:51:13.787Z,1.33
2018-06-22T09:53:45.897Z,1.50
2018-06-22T09:56:17.982Z,1.20
2018-06-22T09:58:50.097Z,1.20
2018-06-22T10:01:22.177Z,1.37
2018-06-22T10:03:54.395Z,1.20
2018-06-22T10:06:26.483Z,1.50
2018-06-22T10:08:58.559Z,1.00
2018-06-22T10:11:30.677Z,0.73
2018-06-22T10:14:02.780Z,1.40
2018-06-22T10:16:34.842Z,1.17
2018-06-22T10:19:06.909Z,1.30
2018-06-22T10:21:38.981Z,1.30
2018-06-22T10:24:11.047Z,1.10
2018-06-22T10:26:43.092Z,1.00
2018-06-22T10:29:15.133Z,0.97
2018-06-22T10:31:47.175Z,0.87
2018-06-22T10:34:19.268Z,1.20
2018-06-22T10:36:51.287Z,1.03
2018-06-22T10:39:23.330Z,1.13
2018-06-22T10:41:55.440Z,0.93
2018-06-22T10:44:27.516Z,1.27
2018-06-22T10:46:59.586Z,1.20
2018-06-22T10:49:31.651Z,1.30
2018-06-22T10:52:03.751Z,1.10
2018-06-22T10:54:35.859Z,0.80
2018-06-22T10:57:07.908Z,1.00
2018-06-22T10:59:40.079Z,0.93
2018-06-22T11:02:12.083Z,1.10
2018-06-22T11:04:44.205Z,1.20
2018-06-22T11:07:16.338Z,1.03
2018-06-22T11:09:48.407Z,1.20
2018-06-22T11:12:20.515Z,1.00
2018-06-22T11:14:52.583Z,1.13
2018-06-22T11:17:24.599Z,1.07
2018-06-22T11:19:56.714Z,1.10
2018-06-22T11:22:28.819Z,1.00
2018-06-22T11:25:01.010Z,1.67
2018-06-22T11:27:33.099Z,1.20
2018-06-22T11:30:05.262Z,1.17
2018-06-22T11:32:37.392Z,1.33
2018-06-22T11:35:09.463Z,1.30
2018-06-22T11:37:41.505Z,0.90
2018-06-22T11:40:13.732Z,1.33
2018-06-22T11:42:46.278Z,1.87
2018-06-22T11:45:18.411Z,1.33
2018-06-22T11:47:50.519Z,1.20
2018-06-22T11:50:22.607Z,1.80
2018-06-22T11:52:54.680Z,1.00
2018-06-22T11:55:27.195Z,1.73
2018-06-22T11:57:59.300Z,1.30
2018-06-22T12:00:31.399Z,1.20
2018-06-22T12:03:03.668Z,0.97
2018-06-22T12:05:35.813Z,1.20
2018-06-22T12:08:08.010Z,1.10
2018-06-22T12:10:40.116Z,1.30
2018-06-22T12:13:12.260Z,1.30
2018-06-22T12:15:44.492Z,1.00
2018-06-22T12:18:16.625Z,1.10
2018-06-22T12:20:48.738Z,1.00
2018-06-22T12:23:20.991Z,0.93
2018-06-22T12:25:53.073Z,1.10
2018-06-22T12:28:25.121Z,1.30
2018-06-22T12:30:57.251Z,1.50
2018-06-22T12:33:29.340Z,1.13
2018-06-22T12:36:01.421Z,1.50
2018-06-22T12:38:34.462Z,1.33
2018-06-22T12:41:06.564Z,1.17
2018-06-22T12:43:38.639Z,1.17
2018-06-22T12:46:10.748Z,1.10
2018-06-22T12:48:42.998Z,2.00
2018-06-22T12:51:15.412Z,1.07
2018-06-22T12:53:47.624Z,1.10
2018-06-22T12:56:19.704Z,1.40
2018-06-22T12:58:51.801Z,1.37
2018-06-22T13:01:24.564Z,1.23
2018-06-22T13:03:56.715Z,1.57
2018-06-22T13:06:28.783Z,1.80
2018-06-22T13:09:01.608Z,1.13
2018-06-22T13:11:33.824Z,1.60
2018-06-22T13:14:06.389Z,1.13
2018-06-22T13:16:38.516Z,1.30
2018-06-22T13:19:10.579Z,1.50
2018-06-22T13:21:49.958Z,1.27
2018-06-22T13:24:23.207Z,0.90
2018-06-22T13:26:55.323Z,1.40
2018-06-22T13:29:27.558Z,1.20
2018-06-22T13:31:59.645Z,1.93
2018-06-22T13:34:31.790Z,1.40
2018-06-22T13:37:03.959Z,1.20
2018-06-22T13:39:36.058Z,1.30
2018-06-22T13:42:07.943Z,1.30
2018-06-22T13:44:40.144Z,1.13
2018-06-22T13:47:12.213Z,1.00
2018-06-22T13:49:44.298Z,1.10
2018-06-22T13:52:16.362Z,1.87
2018-06-22T13:54:48.460Z,1.20
2018-06-22T13:57:20.571Z,1.10
2018-06-22T13:59:52.683Z,1.47
2018-06-22T14:02:24.823Z,1.00
2018-06-22T14:06:01.162Z,1.23
2018-06-22T14:08:33.321Z,1.10
2018-06-22T14:11:05.397Z,1.20
2018-06-22T14:13:37.481Z,0.70
2018-06-22T14:16:09.547Z,1.30
2018-06-22T14:18:42.896Z,1.30
2018-06-22T14:21:15.010Z,1.57
2018-06-22T14:23:47.179Z,1.50
2018-06-22T14:26:19.361Z,1.30
2018-06-22T14:28:51.460Z,1.13
2018-06-22T14:31:23.550Z,1.23
2018-06-22T14:33:55.704Z,0.90
2018-06-22T14:36:27.938Z,1.00
2018-06-22T14:39:01.193Z,1.00
2018-06-22T14:41:33.283Z,1.00
2018-06-22T14:50:00.778Z,1.23
2018-06-22T14:52:32.874Z,1.70
2018-06-22T14:55:10.769Z,0.90
2018-06-22T14:57:48.718Z,1.27
2018-06-22T15:00:26.381Z,1.43
2018-06-22T15:03:04.058Z,1.60
2018-06-22T15:05:41.716Z,1.20
2018-06-22T15:08:18.633Z,1.33
2018-06-22T15:10:50.820Z,1.40
2018-06-22T15:13:23.143Z,1.27
2018-06-22T15:15:59.232Z,1.90
2018-06-22T15:18:31.337Z,1.30
2018-06-22T15:21:03.551Z,1.30
2018-06-22T15:23:35.634Z,1.80
2018-06-22T15:26:07.933Z,1.70
2018-06-22T15:28:40.194Z,1.50
2018-06-22T15:31:12.268Z,1.40
2018-06-22T15:33:50.687Z,1.03
2018-06-22T15:36:28.380Z,1.00
2018-06-22T15:39:06.328Z,1.30
2018-06-22T15:41:44.003Z,1.10
2018-06-22T15:44:21.860Z,1.13
2018-06-22T15:46:59.812Z,0.93
2018-06-22T15:49:37.780Z,1.30
2018-06-22T15:52:15.532Z,0.93
2018-06-22T15:54:53.126Z,1.00
2018-06-22T15:57:25.230Z,1.20
2018-06-22T15:59:57.452Z,0.80
2018-06-22T16:02:35.109Z,1.07
2018-06-22T16:05:07.264Z,1.27
2018-06-22T16:07:39.599Z,1.07
2018-06-22T16:10:11.882Z,1.07
2018-06-22T16:12:43.988Z,1.20
2018-06-22T16:15:21.695Z,1.00
2018-06-22T16:17:59.448Z,1.10
2018-06-22T16:20:37.224Z,1.00
2018-06-22T16:23:14.948Z,1.20
2018-06-22T16:25:52.643Z,1.50
2018-06-22T16:28:24.732Z,1.30
2018-06-22T16:30:56.861Z,1.43
2018-06-22T16:33:28.972Z,0.90
2018-06-22T16:36:01.076Z,1.40
2018-06-22T16:38:33.092Z,1.50
2018-06-22T16:41:05.248Z,1.20
2018-06-22T16:43:37.292Z,1.30
2018-06-22T16:46:09.352Z,1.20
2018-06-22T16:48:41.492Z,1.20
2018-06-22T16:51:13.576Z,1.37
2018-06-22T16:53:45.719Z,1.47
2018-06-22T16:56:17.865Z,1.40
2018-06-22T16:58:50.985Z,1.23
2018-06-22T17:01:23.070Z,2.47
2018-06-22T17:03:55.283Z,1.33
2018-06-22T17:06:32.034Z,1.00
2018-06-22T17:09:12.669Z,1.00
2018-06-22T17:11:50.343Z,1.33
2018-06-22T17:14:28.078Z,0.90
2018-06-22T17:17:05.746Z,1.13
2018-06-22T17:19:37.915Z,1.10
2018-06-22T17:22:10.040Z,0.93
2018-06-22T17:24:42.231Z,0.97
2018-06-22T17:27:14.331Z,1.10
2018-06-22T17:29:46.552Z,1.50
2018-06-22T17:32:18.619Z,1.30
2018-06-22T17:34:51.273Z,1.10
2018-06-22T17:37:23.727Z,1.20
2018-06-22T17:39:55.896Z,1.20
2018-06-22T17:42:28.559Z,1.40
2018-06-22T17:45:00.719Z,1.37
2018-06-22T17:47:32.902Z,1.40
2018-06-22T17:50:10.755Z,1.47
2018-06-22T17:52:42.896Z,1.20
2018-06-22T17:55:14.997Z,1.40
2018-06-22T17:57:47.116Z,1.40
2018-06-22T18:00:24.995Z,1.60
2018-06-22T18:03:02.703Z,1.60
2018-06-22T18:05:40.604Z,1.90
2018-06-22T18:08:18.349Z,1.10
2018-06-22T18:10:56.132Z,1.07
2018-06-22T18:13:29.252Z,1.20
2018-06-22T18:16:04.793Z,1.22
2018-06-22T18:18:36.943Z,1.20
2018-06-22T18:21:09.094Z,1.20
2018-06-22T18:23:41.239Z,1.10
2018-06-22T18:26:13.352Z,1.47
2018-06-22T18:28:45.484Z,1.45
2018-06-22T18:31:17.698Z,1.20
2018-06-22T18:33:49.763Z,1.35
2018-06-22T18:36:21.872Z,1.30
2018-06-22T18:38:54.012Z,1.40
2018-06-22T18:41:26.256Z,1.87
2018-06-22T18:43:59.553Z,1.30
2018-06-22T18:46:31.996Z,1.40
2018-06-22T18:49:04.104Z,1.70
2018-06-22T18:51:36.201Z,1.60
2018-06-22T18:54:14.130Z,1.80
2018-06-22T18:56:51.840Z,2.02
2018-06-22T18:59:30.767Z,1.85
2018-06-22T19:02:08.507Z,2.08
2018-06-22T19:04:40.792Z,1.70
2018-06-22T19:07:12.877Z,2.05
2018-06-22T19:09:44.946Z,1.90
2018-06-22T19:12:17.126Z,2.02
2018-06-22T19:14:49.212Z,1.92
2018-06-22T19:17:21.292Z,2.92
2018-06-22T19:19:53.419Z,1.95
2018-06-22T19:22:25.523Z,1.45
2018-06-22T19:24:57.807Z,1.52
2018-06-22T19:27:29.924Z,1.30
2018-06-22T19:30:02.077Z,1.65
2018-06-22T19:32:34.228Z,1.30
2018-06-22T19:35:13.461Z,1.72
2018-06-22T19:37:45.566Z,1.70
2018-06-22T19:40:17.654Z,1.85
2018-06-22T19:42:49.803Z,1.60
2018-06-22T19:45:27.575Z,2.40
2018-06-22T19:49:02.673Z,1.80
2018-06-22T19:51:40.410Z,1.90
2018-06-22T19:54:12.613Z,2.60
2018-06-22T19:56:44.759Z,2.55
2018-06-22T19:59:17.994Z,2.00
2018-06-22T20:01:50.106Z,2.02
2018-06-22T20:04:22.360Z,2.12
2018-06-22T20:06:54.490Z,2.50
2018-06-22T20:09:26.557Z,2.08
2018-06-22T20:11:58.624Z,2.42
2018-06-22T20:14:30.685Z,2.50
2018-06-22T20:17:02.964Z,2.45
2018-06-22T20:19:35.035Z,1.92
2018-06-22T20:22:07.122Z,2.52
2018-06-22T20:24:44.700Z,1.75
2018-06-22T20:27:16.807Z,1.90
2018-06-22T20:29:48.938Z,2.00
2018-06-22T20:32:21.142Z,2.15
2018-06-22T20:35:00.091Z,2.10
2018-06-22T20:37:37.930Z,1.90
2018-06-22T20:40:15.579Z,2.67
2018-06-22T20:42:52.237Z,1.87
2018-06-22T20:45:29.976Z,2.20
2018-06-22T20:48:07.847Z,2.47
2018-06-22T20:50:39.932Z,2.20
2018-06-22T20:53:12.077Z,2.25
2018-06-22T20:55:44.207Z,2.20
2018-06-22T20:58:18.401Z,2.00
2018-06-22T21:00:53.121Z,2.60
2018-06-22T21:03:25.148Z,2.20
2018-06-22T21:05:57.212Z,2.62
2018-06-22T21:08:29.299Z,2.30
2018-06-22T21:11:01.477Z,2.10
2018-06-22T21:13:33.604Z,3.00
2018-06-22T21:16:05.723Z,2.50
2018-06-22T21:18:37.816Z,2.85
2018-06-22T21:21:15.846Z,2.10
2018-06-22T21:23:47.919Z,2.80
2018-06-22T21:26:19.990Z,2.30
2018-06-22T21:28:57.643Z,2.60
2018-06-22T21:31:35.383Z,2.70
2018-06-22T21:35:13.655Z,2.98
2018-06-22T21:37:51.320Z,2.77
2018-06-22T21:40:23.368Z,2.90
2018-06-22T21:42:55.435Z,3.25
2018-06-22T21:45:27.545Z,2.80
2018-06-22T21:47:59.692Z,2.80
2018-06-22T21:50:31.744Z,2.75
2018-06-22T21:53:03.914Z,2.60
2018-06-22T21:55:35.980Z,3.05
2018-06-22T21:58:08.048Z,2.83
2018-06-22T22:00:40.107Z,3.50
2018-06-22T22:03:12.187Z,3.05
2018-06-22T22:05:44.296Z,3.15
2018-06-22T22:08:16.373Z,2.87
2018-06-22T22:10:54.342Z,2.75
2018-06-22T22:13:26.444Z,4.10
2018-06-22T22:15:58.549Z,3.52
2018-06-22T22:18:30.720Z,3.70
2018-06-22T22:21:02.873Z,3.25
2018-06-22T22:23:35.002Z,3.52
2018-06-22T22:26:07.118Z,3.37
2018-06-22T22:28:39.335Z,3.87
2018-06-22T22:31:11.465Z,3.45
2018-06-22T22:33:43.628Z,3.40
2018-06-22T22:36:15.749Z,3.75
2018-06-22T22:38:47.819Z,3.55
2018-06-22T22:41:19.890Z,3.15
2018-06-22T22:43:51.995Z,3.72
2018-06-22T22:46:24.073Z,3.55
2018-06-22T22:48:56.194Z,3.17
2018-06-22T22:51:28.295Z,3.00
2018-06-22T22:54:00.491Z,3.17
2018-06-22T22:56:32.640Z,3.27
2018-06-22T22:59:04.749Z,2.90
2018-06-22T23:01:36.840Z,2.75
2018-06-22T23:04:08.897Z,3.10
2018-06-22T23:06:40.972Z,3.20
2018-06-22T23:09:13.026Z,3.08
2018-06-22T23:11:45.112Z,3.20
2018-06-22T23:14:17.167Z,2.80
2018-06-22T23:16:49.229Z,2.45
2018-06-22T23:19:21.482Z,2.70
2018-06-22T23:21:53.556Z,3.00
2018-06-22T23:24:25.640Z,2.95
2018-06-22T23:26:57.710Z,2.62
2018-06-22T23:29:29.944Z,3.20
2018-06-22T23:32:02.041Z,3.50
2018-06-22T23:34:34.405Z,2.60
2018-06-22T23:37:06.692Z,2.45
2018-06-22T23:39:38.888Z,3.02
2018-06-22T23:42:10.930Z,3.45
2018-06-22T23:44:43.080Z,2.92
2018-06-22T23:47:15.146Z,2.60
2018-06-22T23:49:47.242Z,3.05
2018-06-22T23:52:19.424Z,3.30
2018-06-22T23:54:51.544Z,2.62
2018-06-22T23:57:23.556Z,2.80
2018-06-22T23:59:55.683Z,3.22
